Time;durP1;ratioP1;P1;durP2;ratioP2;P2;SDS_P1;SDS_P2;PMS_P1;PMS_P2;Temp;Humidity;BMP_temperature;BMP_pressure;BME280_temperature;BME280_humidity;BME280_pressure;Samples;Min_cycle;Max_cycle;Signal;HPM_P1;HPM_P2
2023/03/29 00:01:06;;;;;;;2.40;1.17;;;8.40;99.90;;;;;;4938669;29;20190;-76
2023/03/29 00:03:32;;;;;;;7.10;1.73;;;8.40;99.90;;;;;;4939195;29;20187;-75
2023/03/29 00:06:01;;;;;;;4.70;1.47;;;8.40;99.90;;;;;;4938757;29;20761;-75
2023/03/29 00:08:28;;;;;;;3.77;0.70;;;8.40;99.90;;;;;;4938802;29;20506;-79
2023/03/29 00:10:55;;;;;;;1.77;0.63;;;8.40;99.90;;;;;;4953580;29;20465;-79
2023/03/29 00:13:21;;;;;;;1.63;0.63;;;8.40;99.90;;;;;;4938540;29;20449;-74
2023/03/29 00:15:46;;;;;;;4.80;1.07;;;8.30;99.90;;;;;;4939325;29;20479;-75
2023/03/29 00:18:12;;;;;;;5.13;1.30;;;8.30;99.90;;;;;;4939239;29;20247;-80
2023/03/29 00:20:37;;;;;;;3.33;1.10;;;8.20;99.90;;;;;;4939313;29;20192;-79
2023/03/29 00:23:03;;;;;;;6.30;1.93;;;8.30;1.00;;;;;;4954008;29;20189;-77
2023/03/29 00:25:28;;;;;;;2.57;1.10;;;8.20;99.90;;;;;;4938822;29;20236;-78
2023/03/29 00:27:54;;;;;;;4.23;1.00;;;8.20;99.90;;;;;;4939188;29;20629;-78
2023/03/29 00:30:19;;;;;;;3.33;0.80;;;8.10;1.00;;;;;;4939161;29;20252;-77
2023/03/29 00:32:45;;;;;;;1.80;1.03;;;8.20;1.00;;;;;;4938112;29;20184;-78
2023/03/29 00:35:11;;;;;;;2.40;0.90;;;8.20;1.00;;;;;;4938467;29;20701;-77
2023/03/29 00:37:36;;;;;;;5.80;1.20;;;8.20;1.00;;;;;;4938802;29;20235;-76
2023/03/29 00:40:07;;;;;;;4.03;1.17;;;8.20;1.00;;;;;;4937752;29;20176;-76
2023/03/29 00:42:32;;;;;;;5.60;1.03;;;8.10;1.00;;;;;;4935210;29;20184;-77
2023/03/29 00:45:20;;;;;;;9.07;0.77;;;8.20;1.00;;;;;;4938030;29;20427;-76
2023/03/29 00:47:50;;;;;;;3.53;1.10;;;8.20;1.00;;;;;;4937828;29;20958;-77
2023/03/29 00:50:28;;;;;;;2.00;1.20;;;8.20;1.00;;;;;;4938335;29;20448;-77
2023/03/29 00:53:13;;;;;;;4.80;1.37;;;8.10;42.30;;;;;;4938437;29;20439;-77
2023/03/29 00:55:48;;;;;;;4.13;1.30;;;8.10;99.90;;;;;;4937887;29;20476;-77
2023/03/29 00:58:20;;;;;;;4.90;0.80;;;8.10;99.90;;;;;;4938390;29;20420;-76
2023/03/29 01:00:56;;;;;;;3.10;1.00;;;8.10;99.90;;;;;;4938253;29;20418;-77
2023/03/29 01:03:27;;;;;;;5.53;1.30;;;8.20;1.00;;;;;;4937541;29;20853;-76
2023/03/29 01:05:59;;;;;;;3.13;1.20;;;8.20;99.90;;;;;;4937973;29;20421;-75
2023/03/29 01:08:49;;;;;;;3.43;1.30;;;8.10;99.90;;;;;;4938025;29;20413;-76
2023/03/29 01:11:26;;;;;;;2.20;1.00;;;8.10;99.90;;;;;;4934620;29;20443;-76
2023/03/29 01:13:57;;;;;;;3.70;1.40;;;8.00;69.10;;;;;;4936872;29;20842;-78
2023/03/29 01:16:25;;;;;;;2.57;1.30;;;8.00;1.00;;;;;;4937792;29;20467;-81
2023/03/29 01:18:51;;;;;;;5.70;1.13;;;7.90;1.00;;;;;;4936967;29;20424;-77
2023/03/29 01:21:24;;;;;;;5.93;1.60;;;7.80;1.00;;;;;;4937912;29;20783;-78
2023/03/29 01:24:16;;;;;;;7.43;1.27;;;7.60;1.00;;;;;;4937923;29;20183;-76
2023/03/29 01:26:56;;;;;;;3.80;1.30;;;7.40;10.90;;;;;;4926573;29;20427;-76
2023/03/29 01:29:39;;;;;;;2.30;1.23;;;7.30;99.90;;;;;;4936331;29;20524;-77
2023/03/29 01:32:15;;;;;;;4.87;1.53;;;7.20;99.90;;;;;;4937635;29;20427;-76
2023/03/29 01:34:58;;;;;;;2.70;0.93;;;7.10;99.90;;;;;;4936440;29;20987;-81
2023/03/29 01:37:38;;;;;;;4.97;1.07;;;7.10;99.90;;;;;;4937255;29;20990;-78
2023/03/29 01:40:05;;;;;;;2.50;1.13;;;7.10;99.90;;;;;;4937299;29;20455;-83
2023/03/29 01:43:10;;;;;;;5.33;2.40;;;7.10;1.00;;;;;;4937112;29;20480;-80
2023/03/29 01:45:43;;;;;;;3.90;1.30;;;7.20;99.90;;;;;;4937553;29;20525;-80
2023/03/29 01:48:15;;;;;;;3.30;1.00;;;7.30;99.90;;;;;;4936558;29;20463;-81
2023/03/29 01:50:55;;;;;;;3.80;0.90;;;7.20;99.90;;;;;;4936113;29;20420;-76
2023/03/29 01:53:38;;;;;;;6.17;1.83;;;7.20;44.90;;;;;;4934218;29;20796;-76
2023/03/29 01:56:13;;;;;;;5.23;1.60;;;7.20;1.00;;;;;;4936751;29;20476;-76
2023/03/29 01:58:46;;;;;;;4.27;1.37;;;6.90;1.00;;;;;;4937442;29;20492;-75
2023/03/29 02:01:16;;;;;;;2.33;1.57;;;6.90;1.00;;;;;;4937524;29;20414;-75
2023/03/29 02:03:45;;;;;;;5.70;1.43;;;6.90;21.00;;;;;;4937454;29;20416;-75
2023/03/29 02:06:15;;;;;;;2.60;1.37;;;6.80;99.90;;;;;;4935982;29;20422;-75
2023/03/29 02:08:42;;;;;;;3.50;1.57;;;6.80;1.00;;;;;;4934868;29;20486;-75
2023/03/29 02:11:07;;;;;;;4.03;1.23;;;6.80;1.00;;;;;;4935365;29;20434;-75
2023/03/29 02:13:34;;;;;;;7.17;1.57;;;6.70;1.00;;;;;;4934825;29;20432;-76
2023/03/29 02:16:02;;;;;;;3.17;1.17;;;6.70;1.00;;;;;;4936710;29;20214;-75
2023/03/29 02:18:28;;;;;;;3.30;1.30;;;6.70;99.90;;;;;;4935748;29;20415;-76
2023/03/29 02:20:56;;;;;;;2.73;1.07;;;6.70;1.00;;;;;;4951541;29;20447;-75
2023/03/29 02:23:33;;;;;;;3.00;1.23;;;6.80;89.70;;;;;;4935534;29;20436;-74
2023/03/29 02:26:00;;;;;;;4.13;1.23;;;6.90;57.20;;;;;;4935050;29;20986;-75
2023/03/29 02:28:27;;;;;;;4.37;1.13;;;6.90;84.30;;;;;;4935419;29;20431;-76
2023/03/29 02:31:01;;;;;;;2.90;1.23;;;6.90;5.60;;;;;;4936571;29;20463;-75
2023/03/29 02:33:50;;;;;;;4.70;2.43;;;7.00;46.40;;;;;;4936378;29;20430;-76
2023/03/29 02:36:21;;;;;;;5.37;1.07;;;7.00;1.00;;;;;;4936583;29;20470;-74
2023/03/29 02:38:47;;;;;;;2.97;1.07;;;7.00;15.30;;;;;;4936347;29;20515;-74
2023/03/29 02:41:13;;;;;;;5.30;2.00;;;7.00;1.00;;;;;;4936174;29;20470;-75
2023/03/29 02:43:39;;;;;;;3.80;1.50;;;6.90;17.90;;;;;;4935305;29;20183;-76
2023/03/29 02:46:06;;;;;;;3.00;1.37;;;6.90;38.90;;;;;;4934987;29;20460;-76
2023/03/29 02:48:33;;;;;;;3.73;1.57;;;6.80;29.50;;;;;;4934294;29;20780;-76
2023/03/29 02:51:04;;;;;;;5.80;1.40;;;6.80;16.40;;;;;;4933865;29;20444;-75
2023/03/29 02:53:37;;;;;;;3.67;2.00;;;6.70;1.00;;;;;;4936128;29;20419;-74
2023/03/29 02:56:03;;;;;;;4.20;1.40;;;6.60;10.50;;;;;;4935890;29;20473;-76
2023/03/29 02:58:30;;;;;;;2.83;1.57;;;6.50;99.90;;;;;;4936186;29;20493;-75
2023/03/29 03:00:59;;;;;;;4.33;1.47;;;6.50;99.90;;;;;;4936426;29;20936;-75
2023/03/29 03:03:24;;;;;;;4.17;1.40;;;6.40;99.90;;;;;;4936386;29;20418;-76
2023/03/29 03:05:53;;;;;;;7.67;2.20;;;6.40;99.90;;;;;;4936377;29;20423;-76
2023/03/29 03:08:19;;;;;;;2.97;1.23;;;6.30;99.90;;;;;;4936337;29;20171;-75
2023/03/29 03:10:45;;;;;;;3.50;1.50;;;6.40;99.90;;;;;;4935974;29;20508;-74
2023/03/29 03:13:11;;;;;;;2.53;1.63;;;6.40;99.90;;;;;;4936313;29;20416;-77
2023/03/29 03:15:41;;;;;;;4.47;2.03;;;6.40;1.00;;;;;;4936158;29;21005;-77
2023/03/29 03:18:09;;;;;;;8.23;2.20;;;6.40;99.90;;;;;;4936260;29;20446;-74
2023/03/29 03:20:35;;;;;;;3.47;1.50;;;6.20;99.90;;;;;;4936084;29;20420;-76
2023/03/29 03:23:02;;;;;;;4.07;2.10;;;6.30;1.00;;;;;;4935823;29;20529;-75
2023/03/29 03:25:28;;;;;;;3.57;1.63;;;6.40;1.00;;;;;;4934531;29;20199;-75
2023/03/29 03:27:53;;;;;;;2.80;1.27;;;6.30;99.90;;;;;;4935429;29;20452;-75
2023/03/29 03:30:19;;;;;;;6.23;1.67;;;6.20;99.90;;;;;;4950639;29;20429;-75
2023/03/29 03:32:45;;;;;;;3.10;1.40;;;6.20;99.90;;;;;;4935971;29;20173;-76
2023/03/29 03:35:15;;;;;;;9.57;2.00;;;6.10;99.90;;;;;;4935663;29;20425;-75
2023/03/29 03:37:40;;;;;;;6.43;2.00;;;6.00;1.00;;;;;;4935703;29;20499;-75
2023/03/29 03:40:16;;;;;;;2.90;2.23;;;6.00;1.00;;;;;;4935420;29;20413;-75
2023/03/29 03:42:41;;;;;;;4.20;1.87;;;6.10;1.00;;;;;;4935792;29;20259;-76
2023/03/29 03:45:08;;;;;;;4.93;1.70;;;6.10;13.80;;;;;;4935882;29;20414;-75
2023/03/29 03:47:36;;;;;;;5.47;1.50;;;6.10;25.60;;;;;;4935732;29;20540;-75
2023/03/29 03:50:02;;;;;;;3.33;1.67;;;6.10;99.90;;;;;;4935733;29;20440;-74
2023/03/29 03:52:28;;;;;;;5.17;2.07;;;6.10;20.80;;;;;;4935592;29;20421;-75
2023/03/29 03:54:53;;;;;;;5.27;1.90;;;6.00;99.90;;;;;;4935237;29;20989;-75
2023/03/29 03:57:19;;;;;;;4.10;2.47;;;6.00;99.90;;;;;;4935535;29;20237;-75
2023/03/29 03:59:44;;;;;;;4.97;2.40;;;6.00;1.00;;;;;;4935641;29;20534;-75
2023/03/29 04:02:10;;;;;;;6.47;2.57;;;6.00;99.90;;;;;;4935696;29;20182;-74
2023/03/29 04:04:35;;;;;;;3.67;2.10;;;5.90;99.90;;;;;;4935641;29;20261;-76
2023/03/29 04:07:02;;;;;;;7.10;1.73;;;6.00;99.90;;;;;;4933857;29;20252;-74
2023/03/29 04:09:30;;;;;;;4.97;1.33;;;5.90;99.90;;;;;;4933578;29;20643;-75
2023/03/29 04:11:56;;;;;;;9.53;2.30;;;6.00;1.00;;;;;;4934427;29;20449;-75
2023/03/29 04:14:22;;;;;;;4.10;2.03;;;6.00;99.90;;;;;;4950179;29;20449;-76
2023/03/29 04:16:47;;;;;;;7.13;2.40;;;6.10;1.00;;;;;;4935206;29;20477;-75
2023/03/29 04:19:13;;;;;;;3.40;1.70;;;6.00;99.90;;;;;;4935590;29;20249;-76
2023/03/29 04:21:39;;;;;;;5.40;2.20;;;6.00;1.00;;;;;;4935529;29;20710;-76
2023/03/29 04:24:05;;;;;;;4.50;3.10;;;6.00;1.00;;;;;;4935525;29;20683;-75
2023/03/29 04:26:30;;;;;;;8.90;2.00;;;5.90;99.90;;;;;;4935077;29;20532;-74
2023/03/29 04:28:56;;;;;;;3.43;2.40;;;5.80;99.90;;;;;;4935416;29;20181;-75
2023/03/29 04:31:27;;;;;;;8.97;1.73;;;5.70;75.90;;;;;;4935355;29;20261;-77
2023/03/29 04:33:53;;;;;;;2.53;1.50;;;5.70;99.90;;;;;;4935401;29;20642;-75
2023/03/29 04:36:21;;;;;;;7.30;1.83;;;5.70;99.90;;;;;;4935245;29;20465;-75
2023/03/29 04:38:51;;;;;;;6.83;1.77;;;5.50;1.00;;;;;;4937173;29;20186;-75
2023/03/29 04:41:17;;;;;;;4.20;1.87;;;5.50;1.00;;;;;;4938650;29;20425;-77
2023/03/29 04:43:45;;;;;;;2.40;0.87;;;5.40;23.30;;;;;;4938913;29;20436;-74
2023/03/29 04:46:12;;;;;;;8.00;2.60;;;5.40;99.90;;;;;;4938913;29;20430;-75
2023/03/29 04:48:37;;;;;;;5.00;1.80;;;5.30;1.00;;;;;;4953409;29;20428;-75
2023/03/29 04:51:03;;;;;;;4.03;1.60;;;5.30;1.00;;;;;;4938771;29;20501;-76
2023/03/29 04:53:28;;;;;;;5.03;1.70;;;5.30;1.00;;;;;;4938709;29;20185;-75
2023/03/29 04:55:54;;;;;;;3.70;2.03;;;5.30;1.00;;;;;;4938201;29;20209;-77
2023/03/29 04:58:20;;;;;;;3.80;2.03;;;5.30;99.90;;;;;;4937356;29;20260;-76
2023/03/29 05:00:46;;;;;;;8.97;1.87;;;5.30;99.90;;;;;;4935976;29;20642;-76
2023/03/29 05:03:13;;;;;;;8.97;2.03;;;5.20;1.00;;;;;;4938285;29;20434;-75
2023/03/29 05:05:39;;;;;;;6.93;2.30;;;5.40;99.90;;;;;;4938325;29;20218;-76
2023/03/29 05:08:05;;;;;;;7.63;2.60;;;5.40;99.90;;;;;;4938347;29;20422;-75
2023/03/29 05:10:30;;;;;;;6.40;2.30;;;5.40;99.90;;;;;;4937942;29;20434;-74
2023/03/29 05:12:58;;;;;;;4.03;2.00;;;5.40;99.90;;;;;;4937122;29;20233;-74
2023/03/29 05:15:24;;;;;;;3.27;1.33;;;5.40;1.00;;;;;;4938017;29;20294;-74
2023/03/29 05:17:53;;;;;;;4.80;1.83;;;5.40;1.00;;;;;;4936827;29;20461;-74
2023/03/29 05:20:18;;;;;;;8.20;2.30;;;5.50;1.00;;;;;;4938049;29;20233;-74
2023/03/29 05:22:44;;;;;;;4.83;2.40;;;5.40;1.00;;;;;;4952821;29;20433;-74
2023/03/29 05:25:10;;;;;;;7.53;2.40;;;5.40;1.00;;;;;;4937706;29;20233;-74
2023/03/29 05:27:36;;;;;;;6.23;3.07;;;5.50;1.00;;;;;;4937612;29;20505;-75
2023/03/29 05:30:02;;;;;;;5.93;2.40;;;5.50;1.00;;;;;;4937868;29;20449;-74
2023/03/29 05:32:28;;;;;;;6.13;2.87;;;5.60;1.00;;;;;;4922926;29;20282;-75
2023/03/29 05:34:53;;;;;;;2.97;2.13;;;5.60;1.00;;;;;;4933434;29;20422;-75
2023/03/29 05:37:19;;;;;;;3.97;2.60;;;5.60;1.00;;;;;;4918644;29;20486;-75
2023/03/29 05:39:44;;;;;;;3.70;1.63;;;5.60;23.30;;;;;;4932860;29;20170;-74
2023/03/29 05:42:14;;;;;;;1.90;1.23;;;5.60;99.90;;;;;;4917231;29;20208;-74
2023/03/29 05:44:40;;;;;;;5.40;2.03;;;5.40;1.00;;;;;;4933355;29;20179;-74
2023/03/29 05:47:06;;;;;;;2.70;2.00;;;5.40;1.00;;;;;;4917290;29;20482;-74
2023/03/29 05:49:32;;;;;;;4.87;2.27;;;5.50;99.90;;;;;;4918024;29;20249;-75
2023/03/29 05:51:57;;;;;;;2.90;2.23;;;5.60;99.90;;;;;;4918569;29;20478;-75
2023/03/29 05:54:29;;;;;;;5.63;2.63;;;5.60;1.00;;;;;;4918479;29;20509;-74
2023/03/29 05:56:57;;;;;;;5.67;2.30;;;5.60;1.00;;;;;;4918494;29;20214;-74
2023/03/29 05:59:23;;;;;;;5.17;3.00;;;5.70;1.00;;;;;;4918596;29;20760;-77
2023/03/29 06:01:48;;;;;;;2.77;1.93;;;5.70;99.90;;;;;;4933007;29;20555;-74
2023/03/29 06:04:14;;;;;;;7.40;2.83;;;5.60;44.70;;;;;;4918457;29;20192;-74
2023/03/29 06:06:40;;;;;;;4.30;2.70;;;5.60;99.90;;;;;;4918519;29;20212;-77
2023/03/29 06:09:06;;;;;;;4.43;2.67;;;5.70;99.90;;;;;;4918461;29;20171;-74
2023/03/29 06:11:33;;;;;;;5.43;2.53;;;5.80;99.90;;;;;;4917945;29;20426;-74
2023/03/29 06:14:01;;;;;;;7.23;2.27;;;5.90;99.90;;;;;;4918311;29;20172;-74
2023/03/29 06:16:26;;;;;;;5.30;3.00;;;6.00;99.90;;;;;;4918192;29;20478;-76
2023/03/29 06:18:52;;;;;;;5.17;2.40;;;6.10;1.00;;;;;;4918170;29;20774;-73
2023/03/29 06:21:17;;;;;;;6.67;3.00;;;6.20;1.00;;;;;;4918224;29;20178;-74
2023/03/29 06:23:46;;;;;;;4.50;3.30;;;6.20;1.00;;;;;;4932683;29;20208;-77
2023/03/29 06:26:11;;;;;;;4.13;2.87;;;6.30;1.00;;;;;;4917706;29;20175;-76
2023/03/29 06:28:37;;;;;;;3.50;2.53;;;6.30;1.00;;;;;;4917948;29;20422;-77
2023/03/29 06:31:03;;;;;;;5.77;2.67;;;6.40;99.90;;;;;;4917877;29;20712;-77
2023/03/29 06:33:31;;;;;;;4.90;2.77;;;6.40;1.00;;;;;;4916624;29;20184;-74
2023/03/29 06:35:57;;;;;;;3.27;2.27;;;6.50;51.90;;;;;;4932494;29;20467;-76
2023/03/29 06:38:23;;;;;;;4.60;2.13;;;6.60;1.00;;;;;;4917687;29;20475;-75
2023/03/29 06:40:50;;;;;;;4.50;2.90;;;6.60;1.00;;;;;;4932131;29;20434;-76
2023/03/29 06:43:16;;;;;;;6.70;2.97;;;6.60;99.90;;;;;;4917755;29;20419;-77
2023/03/29 06:45:41;;;;;;;6.63;2.53;;;6.70;99.90;;;;;;4916369;29;20884;-75
2023/03/29 06:48:07;;;;;;;4.30;2.73;;;6.70;99.90;;;;;;4916411;29;20186;-76
2023/03/29 06:50:33;;;;;;;4.47;2.57;;;6.70;99.90;;;;;;4917519;29;20176;-77
2023/03/29 06:52:59;;;;;;;5.80;3.67;;;6.70;1.00;;;;;;4916244;29;20467;-79
2023/03/29 06:55:25;;;;;;;6.60;3.77;;;6.90;99.90;;;;;;4915883;29;20498;-75
2023/03/29 06:57:52;;;;;;;6.93;3.13;;;6.90;83.60;;;;;;4917586;29;20187;-75
2023/03/29 07:00:26;;;;;;;7.73;2.93;;;7.00;99.90;;;;;;4917454;29;20428;-77
2023/03/29 07:02:52;;;;;;;7.27;3.87;;;7.00;99.90;;;;;;4916634;29;20471;-76
2023/03/29 07:05:27;;;;;;;5.17;3.20;;;7.10;1.00;;;;;;4917368;29;20423;-76
2023/03/29 07:07:55;;;;;;;5.40;2.13;;;7.20;1.00;;;;;;4916193;29;20849;-75
2023/03/29 07:10:24;;;;;;;3.30;2.67;;;7.20;1.00;;;;;;4916833;29;20935;-75
2023/03/29 07:12:53;;;;;;;4.77;2.33;;;7.10;99.90;;;;;;4917332;29;20776;-75
2023/03/29 07:15:20;;;;;;;6.10;2.20;;;7.10;90.70;;;;;;4917098;29;20424;-76
2023/03/29 07:17:46;;;;;;;8.40;2.57;;;7.00;99.90;;;;;;4931941;29;20504;-77
2023/03/29 07:20:13;;;;;;;5.00;3.00;;;7.20;1.00;;;;;;4917117;29;20518;-76
2023/03/29 07:22:42;;;;;;;2.40;1.63;;;7.20;99.90;;;;;;4917090;29;20816;-76
2023/03/29 07:25:11;;;;;;;6.83;3.30;;;7.30;99.90;;;;;;4916708;29;20787;-76
2023/03/29 07:27:37;;;;;;;5.33;2.83;;;7.30;99.90;;;;;;4916954;29;20429;-76
2023/03/29 07:30:08;;;;;;;6.57;2.57;;;7.40;99.90;;;;;;4917049;29;20442;-77
2023/03/29 07:32:35;;;;;;;3.87;2.30;;;7.60;99.90;;;;;;4916946;29;20501;-76
2023/03/29 07:35:00;;;;;;;5.30;2.60;;;7.70;99.90;;;;;;4915700;29;20436;-76
2023/03/29 07:37:26;;;;;;;5.00;2.07;;;7.80;99.90;;;;;;4916647;29;20840;-75
2023/03/29 07:39:52;;;;;;;3.43;2.33;;;7.90;1.00;;;;;;4916621;29;20543;-78
2023/03/29 07:42:17;;;;;;;6.33;2.67;;;8.10;99.90;;;;;;4931484;29;20636;-78
2023/03/29 07:44:47;;;;;;;3.67;1.50;;;8.20;1.00;;;;;;4916984;29;20429;-76
2023/03/29 07:47:13;;;;;;;3.43;2.13;;;8.20;1.00;;;;;;4931494;29;20185;-78
2023/03/29 07:49:38;;;;;;;4.10;1.73;;;8.20;1.00;;;;;;4916797;29;20421;-76
2023/03/29 07:52:04;;;;;;;3.60;2.17;;;8.30;99.90;;;;;;4916747;29;20191;-76
2023/03/29 07:54:31;;;;;;;7.23;2.20;;;8.30;1.00;;;;;;4916427;29;20178;-77
2023/03/29 07:56:57;;;;;;;3.53;1.47;;;8.30;99.90;;;;;;4916676;29;20280;-76
2023/03/29 07:59:22;;;;;;;5.00;2.90;;;8.50;99.90;;;;;;4916732;29;20418;-78
2023/03/29 08:01:49;;;;;;;3.47;1.57;;;8.60;1.00;;;;;;4916714;29;20704;-76
2023/03/29 08:04:14;;;;;;;6.27;2.10;;;8.60;1.00;;;;;;4916468;29;20640;-76
2023/03/29 08:06:43;;;;;;;5.33;2.83;;;8.60;1.00;;;;;;4916567;29;20425;-76
2023/03/29 08:09:08;;;;;;;3.83;1.90;;;8.70;1.00;;;;;;4916282;29;20638;-76
2023/03/29 08:11:34;;;;;;;4.43;2.63;;;8.80;1.00;;;;;;4916586;29;20425;-75
2023/03/29 08:14:02;;;;;;;4.40;2.50;;;8.90;1.00;;;;;;4918871;29;20174;-76
2023/03/29 08:16:27;;;;;;;3.67;1.80;;;8.90;99.90;;;;;;4920316;29;20772;-76
2023/03/29 08:18:53;;;;;;;3.27;2.00;;;9.00;12.70;;;;;;4920355;29;20456;-77
2023/03/29 08:21:19;;;;;;;2.90;2.13;;;9.00;99.90;;;;;;4935066;29;20631;-76
2023/03/29 08:23:44;;;;;;;3.40;2.10;;;9.00;99.90;;;;;;4920349;29;20182;-76
2023/03/29 08:26:10;;;;;;;2.90;2.07;;;8.80;1.00;;;;;;4919938;29;20432;-75
2023/03/29 08:28:35;;;;;;;2.67;1.30;;;8.80;1.00;;;;;;4920155;29;20685;-76
2023/03/29 08:31:01;;;;;;;7.13;2.53;;;8.90;99.90;;;;;;4920121;29;20178;-76
2023/03/29 08:33:26;;;;;;;3.30;1.40;;;9.00;1.00;;;;;;4920233;29;20283;-75
2023/03/29 08:35:52;;;;;;;3.97;1.67;;;9.00;99.90;;;;;;4920054;29;20227;-76
2023/03/29 08:38:18;;;;;;;5.70;1.97;;;8.90;58.30;;;;;;4919740;29;20232;-78
2023/03/29 08:40:47;;;;;;;3.73;1.77;;;8.90;99.90;;;;;;4919610;29;20503;-75
2023/03/29 08:43:47;;;;;;;2.20;1.30;;;9.10;24.30;;;;;;4920000;29;20643;-76
2023/03/29 08:46:53;;;;;;;3.33;1.60;;;9.00;1.00;;;;;;4934577;29;20423;-77
2023/03/29 08:49:20;;;;;;;6.57;1.73;;;8.90;1.00;;;;;;4917556;29;21064;-80
2023/03/29 08:51:51;;;;;;;3.73;2.30;;;8.90;99.90;;;;;;4918220;29;20508;-78
2023/03/29 08:54:24;;;;;;;4.90;2.10;;;9.00;99.90;;;;;;4918061;29;20423;-78
2023/03/29 08:56:51;;;;;;;4.67;1.53;;;9.10;99.90;;;;;;4919704;29;20485;-78
2023/03/29 08:59:27;;;;;;;1.93;1.63;;;9.10;99.90;;;;;;4918437;29;20459;-78
2023/03/29 09:01:57;;;;;;;3.07;1.90;;;9.20;97.90;;;;;;4919708;29;20996;-77
2023/03/29 09:04:26;;;;;;;3.50;1.87;;;9.20;1.00;;;;;;4919625;29;20426;-76
2023/03/29 09:06:53;;;;;;;4.13;2.10;;;9.20;1.00;;;;;;4918244;29;20416;-79
2023/03/29 09:09:27;;;;;;;3.63;1.87;;;9.30;1.00;;;;;;4918844;29;20467;-79
2023/03/29 09:12:07;;;;;;;4.13;2.10;;;9.20;1.00;;;;;;4919005;29;20426;-79
2023/03/29 09:15:18;;;;;;;2.50;1.53;;;9.20;1.00;;;;;;4919257;29;20569;-78
2023/03/29 09:18:18;;;;;;;3.67;2.37;;;9.10;1.00;;;;;;4934639;29;20939;-79
2023/03/29 09:20:55;;;;;;;2.87;1.83;;;9.30;99.90;;;;;;4951803;29;20452;-78
2023/03/29 09:23:58;;;;;;;4.73;1.90;;;9.40;1.00;;;;;;4937884;29;20406;-76
2023/03/29 09:26:43;;;;;;;4.20;2.50;;;9.50;1.00;;;;;;4937071;29;20479;-76
2023/03/29 09:29:12;;;;;;;2.43;1.30;;;9.80;99.90;;;;;;4937515;29;20421;-76
2023/03/29 09:31:42;;;;;;;4.43;1.50;;;9.90;99.90;;;;;;4952053;29;20937;-76
2023/03/29 09:34:12;;;;;;;3.70;1.67;;;10.00;99.90;;;;;;4951996;29;20548;-75
2023/03/29 09:36:46;;;;;;;4.23;1.83;;;10.20;99.90;;;;;;4935826;29;20478;-77
2023/03/29 09:39:15;;;;;;;4.37;1.83;;;10.40;97.30;;;;;;4937210;29;20768;-76
2023/03/29 09:41:50;;;;;;;5.63;2.13;;;10.70;1.00;;;;;;4936156;29;20430;-76
2023/03/29 09:44:19;;;;;;;2.73;0.97;;;10.90;1.00;;;;;;4936018;29;20422;-76
2023/03/29 09:47:07;;;;;;;3.60;2.50;;;10.90;1.00;;;;;;4936219;29;20432;-76
2023/03/29 09:49:38;;;;;;;5.97;2.17;;;11.20;99.90;;;;;;4935932;29;20421;-76
2023/03/29 09:52:12;;;;;;;2.70;1.50;;;11.10;99.90;;;;;;4935039;29;20443;-77
2023/03/29 09:54:38;;;;;;;4.80;1.47;;;11.40;99.90;;;;;;4936618;29;20439;-77
2023/03/29 09:57:04;;;;;;;3.73;2.17;;;11.70;99.90;;;;;;4934904;29;20483;-77
2023/03/29 09:59:29;;;;;;;6.10;1.97;;;11.60;99.90;;;;;;4936897;29;20283;-76
2023/03/29 10:02:09;;;;;;;3.40;1.33;;;11.70;99.90;;;;;;4937027;29;20182;-76
2023/03/29 10:04:35;;;;;;;2.87;1.93;;;11.60;99.90;;;;;;4936337;29;20194;-79
2023/03/29 10:07:02;;;;;;;5.93;2.13;;;11.50;99.90;;;;;;4951581;29;20434;-76
2023/03/29 10:09:29;;;;;;;3.90;1.97;;;11.50;99.90;;;;;;4936509;29;20484;-76
2023/03/29 10:11:58;;;;;;;2.77;1.93;;;11.50;99.90;;;;;;4951506;29;20439;-77
2023/03/29 10:14:42;;;;;;;3.60;2.50;;;11.40;99.90;;;;;;4951035;29;20447;-77
2023/03/29 10:17:20;;;;;;;3.47;1.60;;;11.70;99.90;;;;;;4950362;29;20480;-76
2023/03/29 10:20:06;;;;;;;5.20;2.17;;;11.80;99.90;;;;;;4936658;29;20415;-76
2023/03/29 10:22:36;;;;;;;3.63;2.53;;;11.60;99.90;;;;;;4934457;29;20435;-77
2023/03/29 10:25:02;;;;;;;7.23;3.17;;;11.70;99.90;;;;;;4936505;29;20408;-77
2023/03/29 10:27:29;;;;;;;4.20;1.63;;;11.50;99.90;;;;;;4936667;29;20403;-77
2023/03/29 10:29:58;;;;;;;4.87;2.90;;;11.50;99.90;;;;;;4936548;29;20548;-78
2023/03/29 10:32:34;;;;;;;3.67;1.90;;;11.60;99.90;;;;;;4936599;29;20489;-77
2023/03/29 10:35:27;;;;;;;3.77;2.23;;;11.50;99.90;;;;;;4936762;29;20426;-87
2023/03/29 10:37:57;;;;;;;8.40;3.00;;;11.30;99.90;;;;;;4931833;29;20470;-83
2023/03/29 10:40:33;;;;;;;3.80;2.43;;;11.20;99.90;;;;;;4935181;29;20414;-81
2023/03/29 10:43:33;;;;;;;5.07;2.20;;;11.00;99.90;;;;;;4934297;29;20431;-86
2023/03/29 10:46:07;;;;;;;5.30;3.10;;;11.00;99.90;;;;;;4920630;29;20801;-81
2023/03/29 10:48:35;;;;;;;9.13;3.03;;;11.00;1.00;;;;;;4917828;29;20494;-83
2023/03/29 10:51:03;;;;;;;6.80;3.43;;;11.10;1.00;;;;;;4935265;29;20434;-84
2023/03/29 10:53:33;;;;;;;6.20;2.90;;;11.20;1.00;;;;;;4934593;29;20443;-88
2023/03/29 10:56:39;;;;;;;3.53;2.43;;;11.30;1.00;;;;;;4933981;29;20493;-82
2023/03/29 10:59:22;;;;;;;5.53;3.20;;;11.20;1.00;;;;;;4897037;29;20438;-82
2023/03/29 11:01:56;;;;;;;6.00;2.10;;;11.40;1.00;;;;;;4935704;29;20426;-82
2023/03/29 11:04:36;;;;;;;3.53;2.40;;;11.50;1.00;;;;;;4934506;29;20443;-80
2023/03/29 11:07:38;;;;;;;5.07;2.40;;;11.50;1.00;;;;;;4936090;29;20428;-82
2023/03/29 11:10:13;;;;;;;4.77;2.87;;;11.50;1.00;;;;;;4931444;29;20429;-82
2023/03/29 11:12:56;;;;;;;5.30;3.20;;;11.50;1.00;;;;;;4933966;29;20423;-82
2023/03/29 11:15:32;;;;;;;5.43;3.37;;;11.80;1.00;;;;;;4933755;29;20988;-82
2023/03/29 11:18:29;;;;;;;4.33;2.43;;;12.00;1.00;;;;;;4935231;29;20774;-82
2023/03/29 11:21:27;;;;;;;6.17;3.03;;;12.00;99.90;;;;;;4935520;29;20451;-82
2023/03/29 11:24:00;;;;;;;7.00;2.20;;;12.10;99.90;;;;;;4933816;29;20444;-82
2023/03/29 11:26:45;;;;;;;4.93;2.20;;;12.20;99.90;;;;;;4934528;29;20494;-82
2023/03/29 11:29:20;;;;;;;5.63;2.63;;;12.30;99.90;;;;;;4934241;29;20447;-82
2023/03/29 11:32:27;;;;;;;5.57;2.50;;;12.30;99.90;;;;;;4934229;29;20486;-82
2023/03/29 11:35:22;;;;;;;8.30;2.83;;;12.10;99.90;;;;;;4914352;29;20434;-82
2023/03/29 11:38:14;;;;;;;4.87;2.90;;;11.90;1.00;;;;;;4934743;29;20483;-82
2023/03/29 11:40:58;;;;;;;3.70;2.00;;;11.90;1.00;;;;;;4933693;29;20430;-82
2023/03/29 11:43:30;;;;;;;3.93;2.87;;;11.90;1.00;;;;;;4934080;29;20475;-82
2023/03/29 11:46:20;;;;;;;6.87;3.53;;;11.90;1.00;;;;;;4933754;29;20557;-83
2023/03/29 11:49:03;;;;;;;3.87;2.20;;;11.80;1.00;;;;;;4934705;29;20419;-83
2023/03/29 11:51:54;;;;;;;5.63;3.10;;;11.70;1.00;;;;;;4935298;29;20965;-83
2023/03/29 11:54:38;;;;;;;5.27;3.17;;;11.80;1.00;;;;;;4935579;29;20423;-81
2023/03/29 11:57:26;;;;;;;4.57;3.33;;;11.70;1.00;;;;;;4935399;29;20487;-81
2023/03/29 12:00:06;;;;;;;3.80;2.50;;;11.60;1.00;;;;;;4934767;29;20408;-82
2023/03/29 12:02:36;;;;;;;6.40;4.00;;;11.50;62.20;;;;;;4932788;29;20889;-82
2023/03/29 12:05:19;;;;;;;4.70;2.70;;;11.50;99.90;;;;;;4931859;29;21249;-82
2023/03/29 12:08:03;;;;;;;4.70;3.00;;;11.60;99.90;;;;;;4933382;29;20795;-81
2023/03/29 12:10:40;;;;;;;6.10;2.63;;;11.70;99.90;;;;;;4931737;29;20427;-82
2023/03/29 12:13:30;;;;;;;8.43;4.07;;;11.70;99.90;;;;;;4933788;29;20431;-82
2023/03/29 12:16:18;;;;;;;5.10;3.10;;;11.60;99.90;;;;;;4933266;29;20562;-82
2023/03/29 12:18:48;;;;;;;7.27;4.27;;;11.50;99.90;;;;;;4930493;29;20955;-85
2023/03/29 12:21:21;;;;;;;5.10;2.90;;;11.60;99.90;;;;;;4930662;29;20416;-83
2023/03/29 12:23:50;;;;;;;4.40;3.27;;;11.60;99.90;;;;;;4930162;29;20498;-82
2023/03/29 12:26:26;;;;;;;4.63;2.50;;;11.70;99.90;;;;;;4930593;29;20420;-81
2023/03/29 12:29:29;;;;;;;7.23;3.63;;;11.70;99.90;;;;;;4932718;29;20423;-83
2023/03/29 12:32:32;;;;;;;8.40;4.30;;;11.70;1.00;;;;;;4932505;29;20992;-84
2023/03/29 12:35:22;;;;;;;7.87;4.57;;;11.90;99.90;;;;;;4914619;29;20437;-84
2023/03/29 12:38:09;;;;;;;7.10;4.13;;;11.80;99.90;;;;;;4910600;29;20948;-82
2023/03/29 12:40:44;;;;;;;5.57;3.83;;;11.70;1.00;;;;;;4911761;29;20502;-84
2023/03/29 12:43:27;;;;;;;8.30;4.70;;;11.80;1.00;;;;;;4896455;29;20419;-84
2023/03/29 12:46:01;;;;;;;8.17;4.50;;;11.90;1.00;;;;;;4912501;29;21014;-82
2023/03/29 12:48:29;;;;;;;6.30;4.07;;;12.00;99.90;;;;;;4896122;29;20437;-82
2023/03/29 12:51:01;;;;;;;6.47;4.60;;;12.20;99.90;;;;;;4912098;29;20522;-77
2023/03/29 12:53:32;;;;;;;5.90;3.70;;;12.20;1.00;;;;;;4913491;29;20945;-77
2023/03/29 12:56:12;;;;;;;10.37;4.40;;;12.20;20.70;;;;;;4913742;29;20475;-80
2023/03/29 12:58:38;;;;;;;11.20;4.87;;;12.20;99.90;;;;;;4913901;29;20429;-77
2023/03/29 13:01:05;;;;;;;7.77;3.50;;;12.40;99.90;;;;;;4915831;29;20504;-78
2023/03/29 13:03:50;;;;;;;5.80;3.60;;;12.40;99.90;;;;;;4917060;29;20191;-77
2023/03/29 13:07:01;;;;;;;4.30;3.30;;;12.30;99.90;;;;;;4918596;29;20416;-77
2023/03/29 13:09:31;;;;;;;5.00;3.50;;;12.20;99.90;;;;;;4937232;29;20431;-77
2023/03/29 13:12:23;;;;;;;6.60;3.43;;;12.20;99.90;;;;;;4935311;29;20495;-76
2023/03/29 13:14:51;;;;;;;7.80;3.90;;;12.30;1.00;;;;;;4936497;29;20781;-77
2023/03/29 13:17:29;;;;;;;6.57;3.30;;;12.30;99.90;;;;;;4920404;29;20481;-77
2023/03/29 13:20:08;;;;;;;4.30;3.50;;;12.40;1.00;;;;;;4918912;29;20588;-77
2023/03/29 13:22:43;;;;;;;6.53;3.53;;;12.50;99.90;;;;;;4932161;29;20421;-78